createdAt,value
2017-11-26T00:00:03.435Z,24.75
2017-11-26T00:00:07.446Z,24.90
2017-11-26T00:00:11.462Z,24.75
2017-11-26T00:00:15.709Z,24.77
2017-11-26T00:00:20.710Z,25.65
2017-11-26T00:00:24.977Z,26.57
2017-11-26T00:00:29.229Z,26.85
2017-11-26T00:00:33.474Z,26.45
2017-11-26T00:00:37.985Z,26.37
2017-11-26T00:00:42.224Z,26.30
2017-11-26T00:00:46.454Z,26.20
2017-11-26T00:00:50.705Z,26.20
2017-11-26T00:00:54.954Z,25.50
2017-11-26T00:00:59.195Z,23.20
2017-11-26T00:01:03.455Z,22.43
2017-11-26T00:01:08.486Z,22.20
2017-11-26T00:01:12.736Z,22.60
2017-11-26T00:01:17.050Z,22.75
2017-11-26T00:01:21.277Z,22.20
2017-11-26T00:01:25.539Z,21.70
2017-11-26T00:01:29.773Z,21.95
2017-11-26T00:01:34.776Z,47.45
2017-11-26T00:01:39.213Z,63.90
2017-11-26T00:01:44.240Z,56.53
2017-11-26T00:01:48.470Z,43.47
2017-11-26T00:01:52.710Z,38.95
2017-11-26T00:01:56.944Z,36.95
2017-11-26T00:02:01.231Z,34.63
2017-11-26T00:02:05.485Z,32.80
2017-11-26T00:02:09.729Z,31.50
2017-11-26T00:02:13.963Z,30.50
2017-11-26T00:02:18.211Z,29.60
2017-11-26T00:02:22.460Z,29.10
2017-11-26T00:02:26.694Z,28.80
2017-11-26T00:02:31.708Z,28.20
2017-11-26T00:02:36.725Z,25.70
2017-11-26T00:02:40.960Z,22.40
2017-11-26T00:02:45.215Z,21.45
2017-11-26T00:02:49.468Z,21.15
2017-11-26T00:02:53.695Z,20.55
2017-11-26T00:02:57.956Z,19.90
2017-11-26T00:03:02.206Z,19.55
2017-11-26T00:03:06.440Z,19.35
2017-11-26T00:03:11.442Z,18.95
2017-11-26T00:03:16.457Z,18.77
2017-11-26T00:03:20.710Z,18.37
2017-11-26T00:03:24.977Z,17.80
2017-11-26T00:03:29.974Z,17.30
2017-11-26T00:03:34.226Z,17.50
2017-11-26T00:03:38.456Z,17.70
2017-11-26T00:03:42.701Z,17.87
2017-11-26T00:03:46.960Z,83.65
2017-11-26T00:03:51.205Z,180.75
2017-11-26T00:03:55.463Z,207.60
2017-11-26T00:03:59.762Z,212.57
2017-11-26T00:04:04.004Z,149.30
2017-11-26T00:04:08.254Z,64.40
2017-11-26T00:04:12.484Z,45.57
2017-11-26T00:04:17.511Z,37.45
2017-11-26T00:04:21.727Z,32.53
2017-11-26T00:04:25.963Z,30.20
2017-11-26T00:04:30.204Z,33.45
2017-11-26T00:04:35.224Z,117.93
2017-11-26T00:04:40.234Z,172.37
2017-11-26T00:04:45.261Z,161.43
2017-11-26T00:04:50.275Z,87.17
2017-11-26T00:04:55.280Z,64.10
2017-11-26T00:04:59.522Z,55.67
2017-11-26T00:05:03.776Z,52.20
2017-11-26T00:05:08.025Z,51.75
2017-11-26T00:05:12.279Z,50.23
2017-11-26T00:05:16.529Z,49.70
2017-11-26T00:05:20.793Z,51.10
2017-11-26T00:05:25.015Z,53.60
2017-11-26T00:05:29.263Z,55.53
2017-11-26T00:05:33.498Z,55.75
2017-11-26T00:05:38.499Z,55.45
2017-11-26T00:05:43.503Z,50.90
2017-11-26T00:05:47.744Z,46.80
2017-11-26T00:05:52.734Z,44.53
2017-11-26T00:05:56.986Z,43.60
2017-11-26T00:06:01.252Z,43.45
2017-11-26T00:06:06.251Z,42.15
2017-11-26T00:06:10.487Z,41.03
2017-11-26T00:06:14.723Z,40.40
2017-11-26T00:06:18.985Z,37.63
2017-11-26T00:06:23.254Z,33.75
2017-11-26T00:06:27.479Z,30.40
2017-11-26T00:06:31.727Z,27.70
2017-11-26T00:06:35.975Z,25.57
2017-11-26T00:06:40.220Z,24.60
2017-11-26T00:06:44.468Z,24.60
2017-11-26T00:06:49.488Z,24.60
2017-11-26T00:06:54.491Z,25.53
2017-11-26T00:06:58.749Z,25.63
2017-11-26T00:07:02.998Z,26.50
2017-11-26T00:07:08.003Z,27.25
2017-11-26T00:07:12.254Z,27.47
2017-11-26T00:07:16.509Z,29.60
2017-11-26T00:07:20.757Z,29.80
2017-11-26T00:07:24.986Z,29.50
2017-11-26T00:07:29.227Z,29.60
2017-11-26T00:07:33.465Z,29.80
2017-11-26T00:07:37.737Z,30.65
2017-11-26T00:07:41.967Z,30.65
2017-11-26T00:07:46.210Z,30.65
2017-11-26T00:07:51.218Z,29.97
2017-11-26T00:07:55.455Z,29.30
2017-11-26T00:07:59.760Z,28.00
2017-11-26T00:08:04.015Z,26.30
2017-11-26T00:08:08.266Z,26.00
2017-11-26T00:08:12.513Z,24.40
2017-11-26T00:08:16.777Z,22.15
2017-11-26T00:08:21.020Z,21.90
2017-11-26T00:08:25.294Z,22.50
2017-11-26T00:08:29.550Z,23.35
2017-11-26T00:08:34.568Z,23.70
2017-11-26T00:08:39.564Z,22.90
2017-11-26T00:08:43.815Z,23.30
2017-11-26T00:08:48.069Z,23.33
2017-11-26T00:08:52.317Z,23.05
2017-11-26T00:08:56.569Z,23.45
2017-11-26T00:09:00.807Z,24.20
2017-11-26T00:09:05.049Z,25.10
2017-11-26T00:09:09.283Z,26.00
2017-11-26T00:09:13.519Z,26.95
2017-11-26T00:09:17.768Z,27.95
2017-11-26T00:09:22.767Z,28.60
2017-11-26T00:09:27.031Z,27.60
2017-11-26T00:09:31.279Z,26.55
2017-11-26T00:09:35.529Z,26.20
2017-11-26T00:09:39.769Z,25.90
2017-11-26T00:09:44.031Z,25.80
2017-11-26T00:09:48.322Z,25.80
2017-11-26T00:09:52.559Z,26.05
2017-11-26T00:09:56.803Z,26.00
2017-11-26T00:10:01.054Z,25.10
2017-11-26T00:10:05.313Z,24.30
2017-11-26T00:10:09.572Z,23.40
2017-11-26T00:10:13.811Z,22.37
2017-11-26T00:10:18.070Z,21.15
2017-11-26T00:10:22.325Z,20.80
2017-11-26T00:10:26.570Z,20.73
2017-11-26T00:10:30.834Z,20.80
2017-11-26T00:10:35.173Z,20.75
2017-11-26T00:10:39.417Z,20.90
2017-11-26T00:10:43.657Z,20.70
2017-11-26T00:10:47.920Z,20.45
2017-11-26T00:10:52.164Z,20.05
2017-11-26T00:10:56.412Z,19.67
2017-11-26T00:11:00.664Z,19.45
2017-11-26T00:11:04.909Z,19.20
2017-11-26T00:11:09.182Z,19.10
2017-11-26T00:11:13.529Z,18.97
2017-11-26T00:11:18.528Z,18.80
2017-11-26T00:11:22.762Z,19.00
2017-11-26T00:11:27.020Z,18.95
2017-11-26T00:11:32.037Z,18.83
2017-11-26T00:11:37.031Z,18.63
2017-11-26T00:11:41.278Z,18.30
2017-11-26T00:11:45.520Z,18.30
2017-11-26T00:11:49.759Z,18.50
2017-11-26T00:11:54.003Z,18.55
2017-11-26T00:11:58.311Z,18.47
2017-11-26T00:12:02.554Z,18.80
2017-11-26T00:12:07.558Z,19.10
2017-11-26T00:12:11.815Z,19.30
2017-11-26T00:12:16.076Z,19.60
2017-11-26T00:12:21.094Z,19.60
2017-11-26T00:12:26.121Z,19.83
2017-11-26T00:12:30.357Z,20.00
2017-11-26T00:12:34.619Z,20.00
2017-11-26T00:12:38.856Z,20.10
2017-11-26T00:12:43.116Z,20.35
2017-11-26T00:12:48.123Z,20.75
2017-11-26T00:12:53.133Z,21.23
2017-11-26T00:12:58.130Z,22.17
2017-11-26T00:13:02.385Z,23.00
2017-11-26T00:13:06.615Z,22.95
2017-11-26T00:13:11.634Z,23.00
2017-11-26T00:13:15.889Z,22.90
2017-11-26T00:13:20.136Z,22.75
2017-11-26T00:13:24.392Z,22.80
2017-11-26T00:13:28.646Z,22.40
2017-11-26T00:13:32.891Z,22.35
2017-11-26T00:13:37.130Z,22.50
2017-11-26T00:13:41.378Z,22.50
2017-11-26T00:13:46.398Z,22.37
2017-11-26T00:13:51.386Z,21.60
2017-11-26T00:13:55.645Z,20.73
2017-11-26T00:13:59.976Z,19.65
2017-11-26T00:14:04.218Z,19.35
2017-11-26T00:14:09.239Z,18.83
2017-11-26T00:14:14.246Z,18.73
2017-11-26T00:14:19.267Z,18.50
2017-11-26T00:14:24.291Z,18.40
2017-11-26T00:14:28.576Z,18.57
2017-11-26T00:14:32.830Z,18.40
2017-11-26T00:14:37.117Z,18.10
2017-11-26T00:14:41.405Z,18.00
2017-11-26T00:14:45.667Z,17.85
2017-11-26T00:14:49.896Z,17.90
2017-11-26T00:14:54.924Z,17.80
2017-11-26T00:14:59.151Z,17.63
2017-11-26T00:15:03.427Z,18.35
2017-11-26T00:15:07.666Z,18.75
2017-11-26T00:15:11.926Z,19.05
2017-11-26T00:15:16.172Z,19.67
2017-11-26T00:15:20.407Z,19.80
2017-11-26T00:15:24.688Z,20.25
2017-11-26T00:15:28.937Z,20.75
2017-11-26T00:15:33.191Z,21.30
2017-11-26T00:15:37.440Z,21.60
2017-11-26T00:15:41.720Z,21.80
2017-11-26T00:15:45.957Z,21.87
2017-11-26T00:15:50.208Z,22.35
2017-11-26T00:15:55.210Z,22.70
2017-11-26T00:15:59.469Z,22.50
2017-11-26T00:16:03.704Z,21.70
2017-11-26T00:16:07.966Z,21.13
2017-11-26T00:16:12.201Z,20.65
2017-11-26T00:16:16.450Z,20.60
2017-11-26T00:16:20.688Z,20.57
2017-11-26T00:16:24.932Z,19.95
2017-11-26T00:16:29.950Z,19.40
2017-11-26T00:16:34.963Z,19.20
2017-11-26T00:16:39.212Z,19.13
2017-11-26T00:16:43.461Z,20.60
2017-11-26T00:16:48.476Z,55.60
2017-11-26T00:16:53.479Z,70.43
2017-11-26T00:16:57.743Z,70.13
2017-11-26T00:17:01.996Z,67.80
2017-11-26T00:17:07.013Z,63.50
2017-11-26T00:17:12.007Z,58.67
2017-11-26T00:17:16.249Z,54.00
2017-11-26T00:17:20.514Z,50.07
2017-11-26T00:17:24.756Z,47.20
2017-11-26T00:17:29.004Z,45.05
2017-11-26T00:17:33.249Z,43.65
2017-11-26T00:17:37.507Z,42.00
2017-11-26T00:17:41.755Z,40.60
2017-11-26T00:17:45.988Z,36.45
2017-11-26T00:17:50.251Z,32.00
2017-11-26T00:17:54.481Z,28.50
2017-11-26T00:17:58.727Z,25.35
2017-11-26T00:18:03.726Z,23.50
2017-11-26T00:18:07.968Z,22.83
2017-11-26T00:18:12.236Z,22.73
2017-11-26T00:18:16.477Z,22.60
2017-11-26T00:18:20.726Z,22.25
2017-11-26T00:18:24.984Z,22.05
2017-11-26T00:18:29.223Z,21.80
2017-11-26T00:18:33.466Z,21.30
2017-11-26T00:18:37.711Z,21.05
2017-11-26T00:18:41.954Z,20.80
2017-11-26T00:18:46.975Z,20.70
2017-11-26T00:18:51.974Z,20.70
2017-11-26T00:18:57.005Z,20.53
2017-11-26T00:19:02.026Z,20.47
2017-11-26T00:19:07.059Z,19.70
2017-11-26T00:19:12.064Z,19.20
2017-11-26T00:19:17.080Z,18.87
2017-11-26T00:19:22.078Z,18.90
2017-11-26T00:19:26.383Z,19.13
2017-11-26T00:19:30.617Z,19.20
2017-11-26T00:19:34.868Z,19.17
2017-11-26T00:19:39.106Z,19.20
2017-11-26T00:19:43.356Z,19.15
2017-11-26T00:19:47.617Z,19.30
2017-11-26T00:19:51.879Z,18.85
2017-11-26T00:19:56.110Z,18.80
2017-11-26T00:20:00.409Z,18.75
2017-11-26T00:20:04.661Z,18.53
2017-11-26T00:20:09.687Z,18.15
2017-11-26T00:20:13.950Z,18.10
2017-11-26T00:20:18.204Z,18.20
2017-11-26T00:20:22.432Z,18.20
2017-11-26T00:20:26.675Z,18.15
2017-11-26T00:20:30.922Z,18.75
2017-11-26T00:20:35.937Z,19.20
2017-11-26T00:20:40.981Z,19.67
2017-11-26T00:20:45.964Z,20.30
2017-11-26T00:20:50.966Z,20.57
2017-11-26T00:20:55.202Z,22.23
2017-11-26T00:20:59.457Z,24.67
2017-11-26T00:21:03.707Z,27.05
2017-11-26T00:21:07.988Z,28.30
2017-11-26T00:21:12.209Z,29.00
2017-11-26T00:21:16.442Z,28.85
2017-11-26T00:21:20.693Z,28.70
2017-11-26T00:21:25.711Z,28.30
2017-11-26T00:21:30.730Z,28.00
2017-11-26T00:21:35.714Z,27.50
2017-11-26T00:21:39.948Z,27.07
2017-11-26T00:21:44.202Z,26.53
2017-11-26T00:21:48.455Z,26.10
2017-11-26T00:21:52.702Z,25.35
2017-11-26T00:21:56.933Z,23.47
2017-11-26T00:22:01.951Z,21.45
2017-11-26T00:22:06.989Z,19.97
2017-11-26T00:22:11.240Z,19.17
2017-11-26T00:22:15.488Z,19.40
2017-11-26T00:22:20.512Z,19.70
2017-11-26T00:22:24.746Z,19.93
2017-11-26T00:22:29.008Z,19.97
2017-11-26T00:22:33.250Z,19.80
2017-11-26T00:22:37.545Z,19.70
2017-11-26T00:22:41.793Z,19.60
2017-11-26T00:22:46.845Z,19.65
2017-11-26T00:22:51.832Z,19.57
2017-11-26T00:22:56.839Z,19.40
2017-11-26T00:23:01.871Z,19.23
2017-11-26T00:23:06.881Z,19.23
2017-11-26T00:23:11.874Z,19.13
2017-11-26T00:23:16.134Z,19.00
2017-11-26T00:23:20.364Z,18.90
2017-11-26T00:23:24.605Z,18.83
2017-11-26T00:23:29.631Z,18.70
2017-11-26T00:23:34.648Z,18.60
2017-11-26T00:23:39.594Z,19.03
2017-11-26T00:23:43.852Z,19.73
2017-11-26T00:23:48.864Z,20.15
2017-11-26T00:23:53.107Z,20.80
2017-11-26T00:23:57.338Z,21.27
2017-11-26T00:24:01.630Z,21.10
2017-11-26T00:24:05.867Z,20.80
2017-11-26T00:24:10.121Z,20.90
2017-11-26T00:24:14.364Z,21.43
2017-11-26T00:24:18.611Z,21.60
2017-11-26T00:24:22.839Z,21.85
2017-11-26T00:24:27.095Z,22.10
2017-11-26T00:24:31.343Z,22.20
2017-11-26T00:24:35.578Z,22.15
2017-11-26T00:24:39.828Z,21.75
2017-11-26T00:24:44.084Z,21.63
2017-11-26T00:24:48.356Z,21.40
2017-11-26T00:24:52.595Z,21.05
2017-11-26T00:24:56.832Z,20.80
2017-11-26T00:25:01.100Z,20.83
2017-11-26T00:25:05.345Z,21.00
2017-11-26T00:25:11.096Z,20.80
2017-11-26T00:25:15.362Z,20.23
2017-11-26T00:25:19.612Z,19.90
2017-11-26T00:25:24.622Z,19.50
2017-11-26T00:25:29.643Z,19.40
2017-11-26T00:25:34.677Z,19.33
2017-11-26T00:25:38.914Z,19.30
2017-11-26T00:25:43.152Z,19.00
2017-11-26T00:25:48.179Z,18.70
2017-11-26T00:25:52.414Z,18.30
2017-11-26T00:25:56.676Z,18.87
2017-11-26T00:26:01.708Z,19.25
2017-11-26T00:26:06.713Z,19.37
2017-11-26T00:26:11.723Z,19.77
2017-11-26T00:26:16.734Z,19.90
2017-11-26T00:26:20.970Z,20.10
2017-11-26T00:26:25.203Z,20.10
2017-11-26T00:26:29.480Z,20.10
2017-11-26T00:26:33.717Z,20.23
2017-11-26T00:26:37.951Z,20.20
2017-11-26T00:26:42.973Z,20.10
2017-11-26T00:26:47.987Z,20.07
2017-11-26T00:26:52.252Z,20.23
2017-11-26T00:26:56.508Z,19.60
2017-11-26T00:27:00.738Z,19.00
2017-11-26T00:27:04.971Z,18.80
2017-11-26T00:27:09.211Z,18.95
2017-11-26T00:27:13.455Z,19.90
2017-11-26T00:27:17.692Z,21.10
2017-11-26T00:27:22.705Z,22.20
2017-11-26T00:27:27.715Z,23.37
2017-11-26T00:27:32.732Z,24.37
2017-11-26T00:27:36.960Z,24.90
2017-11-26T00:27:41.209Z,25.20
2017-11-26T00:27:45.461Z,25.50
2017-11-26T00:27:49.713Z,25.80
2017-11-26T00:27:53.942Z,25.60
2017-11-26T00:27:58.940Z,25.53
2017-11-26T00:28:03.200Z,25.43
2017-11-26T00:28:07.432Z,25.00
2017-11-26T00:28:11.676Z,23.90
2017-11-26T00:28:15.928Z,22.55
2017-11-26T00:28:20.167Z,21.27
2017-11-26T00:28:24.420Z,19.85
2017-11-26T00:28:28.655Z,19.15
2017-11-26T00:28:33.651Z,18.40
2017-11-26T00:28:37.890Z,17.83
2017-11-26T00:28:42.137Z,17.25
2017-11-26T00:28:46.371Z,16.95
2017-11-26T00:28:51.403Z,16.70
2017-11-26T00:28:55.640Z,16.73
2017-11-26T00:28:59.908Z,16.80
2017-11-26T00:29:04.148Z,16.80
2017-11-26T00:29:08.409Z,16.90
2017-11-26T00:29:14.885Z,16.97
2017-11-26T00:29:19.112Z,16.95
2017-11-26T00:29:23.356Z,16.90
2017-11-26T00:29:28.372Z,16.77
2017-11-26T00:29:33.374Z,16.60
2017-11-26T00:29:38.385Z,16.80
2017-11-26T00:29:42.647Z,16.97
2017-11-26T00:29:46.904Z,17.00
2017-11-26T00:29:51.925Z,17.20
2017-11-26T00:29:57.730Z,17.20
2017-11-26T00:30:02.034Z,17.30
2017-11-26T00:30:06.268Z,17.20
2017-11-26T00:30:10.506Z,17.30
2017-11-26T00:30:14.769Z,17.45
2017-11-26T00:30:19.016Z,17.55
2017-11-26T00:30:23.264Z,18.15
2017-11-26T00:30:27.511Z,18.50
2017-11-26T00:30:31.769Z,18.95
2017-11-26T00:30:36.020Z,19.00
2017-11-26T00:30:40.256Z,19.20
2017-11-26T00:30:45.282Z,19.35
2017-11-26T00:30:50.290Z,19.20
2017-11-26T00:30:55.311Z,19.30
2017-11-26T00:31:00.336Z,19.70
2017-11-26T00:31:05.357Z,20.37
2017-11-26T00:31:09.614Z,21.07
2017-11-26T00:31:13.868Z,21.30
2017-11-26T00:31:18.130Z,21.10
2017-11-26T00:31:22.377Z,20.45
2017-11-26T00:31:26.612Z,20.05
2017-11-26T00:31:30.917Z,19.70
2017-11-26T00:31:35.174Z,19.50
2017-11-26T00:31:39.422Z,19.40
2017-11-26T00:31:43.678Z,19.30
2017-11-26T00:31:47.918Z,19.20
2017-11-26T00:31:52.157Z,19.05
2017-11-26T00:31:56.403Z,18.80
2017-11-26T00:32:01.437Z,18.85
2017-11-26T00:32:05.672Z,18.13
2017-11-26T00:32:10.689Z,17.50
2017-11-26T00:32:15.691Z,17.13
2017-11-26T00:32:20.688Z,17.30
2017-11-26T00:32:24.930Z,17.57
2017-11-26T00:32:29.176Z,17.60
2017-11-26T00:32:34.175Z,17.50
2017-11-26T00:32:38.426Z,17.50
2017-11-26T00:32:42.714Z,17.60
2017-11-26T00:32:46.973Z,17.50
2017-11-26T00:32:51.196Z,17.45
2017-11-26T00:32:55.445Z,17.50
2017-11-26T00:33:00.457Z,17.43
2017-11-26T00:33:05.471Z,18.37
2017-11-26T00:33:10.499Z,19.57
2017-11-26T00:33:15.513Z,20.53
2017-11-26T00:33:20.518Z,21.10
2017-11-26T00:33:25.536Z,21.47
2017-11-26T00:33:30.551Z,21.87
2017-11-26T00:33:35.572Z,22.23
2017-11-26T00:33:39.824Z,22.30
2017-11-26T00:33:44.045Z,22.35
2017-11-26T00:33:48.277Z,22.70
2017-11-26T00:33:53.316Z,22.80
2017-11-26T00:33:57.558Z,22.97
2017-11-26T00:34:01.803Z,22.35
2017-11-26T00:34:06.825Z,21.60
2017-11-26T00:34:11.833Z,20.77
2017-11-26T00:34:16.848Z,20.05
2017-11-26T00:34:21.864Z,19.63
2017-11-26T00:34:26.867Z,19.53
2017-11-26T00:34:31.115Z,19.23
2017-11-26T00:34:35.373Z,19.40
2017-11-26T00:34:39.612Z,19.30
2017-11-26T00:34:43.854Z,19.20
2017-11-26T00:34:48.117Z,19.10
2017-11-26T00:34:52.346Z,18.85
2017-11-26T00:34:56.598Z,18.70
2017-11-26T00:35:00.852Z,18.77
2017-11-26T00:35:05.111Z,18.70
2017-11-26T00:35:09.357Z,18.60
2017-11-26T00:35:13.590Z,18.60
2017-11-26T00:35:18.595Z,18.70
2017-11-26T00:35:23.599Z,18.77
2017-11-26T00:35:27.858Z,18.60
2017-11-26T00:35:32.109Z,18.45
2017-11-26T00:35:36.367Z,18.20
2017-11-26T00:35:40.598Z,18.40
2017-11-26T00:35:44.842Z,18.40
2017-11-26T00:35:49.124Z,18.60
2017-11-26T00:35:53.322Z,18.60
2017-11-26T00:35:58.319Z,18.57
2017-11-26T00:36:02.573Z,18.60
2017-11-26T00:36:06.818Z,18.60
2017-11-26T00:36:11.048Z,18.55
2017-11-26T00:36:15.314Z,18.40
2017-11-26T00:36:19.562Z,18.13
2017-11-26T00:36:23.813Z,18.40
2017-11-26T00:36:28.063Z,19.25
2017-11-26T00:36:32.297Z,20.00
2017-11-26T00:36:36.537Z,20.73
2017-11-26T00:36:41.556Z,21.10
2017-11-26T00:36:46.567Z,21.07
2017-11-26T00:36:51.604Z,21.00
2017-11-26T00:36:56.612Z,20.90
2017-11-26T00:37:01.611Z,20.97
2017-11-26T00:37:05.865Z,21.00
2017-11-26T00:37:10.108Z,21.05
2017-11-26T00:37:14.342Z,20.70
2017-11-26T00:37:18.583Z,20.60
2017-11-26T00:37:22.838Z,20.55
2017-11-26T00:37:27.850Z,19.60
2017-11-26T00:37:32.851Z,18.47
2017-11-26T00:37:37.107Z,17.70
2017-11-26T00:37:41.336Z,17.30
2017-11-26T00:37:45.572Z,17.35
2017-11-26T00:37:49.821Z,17.65
2017-11-26T00:37:54.068Z,18.47
2017-11-26T00:37:59.080Z,19.70
2017-11-26T00:38:04.086Z,20.77
2017-11-26T00:38:09.110Z,21.10
2017-11-26T00:38:13.342Z,21.60
2017-11-26T00:38:18.376Z,22.05
2017-11-26T00:38:22.612Z,22.23
2017-11-26T00:38:26.914Z,22.50
2017-11-26T00:38:31.170Z,22.70
2017-11-26T00:38:35.416Z,22.90
2017-11-26T00:38:39.696Z,22.85
2017-11-26T00:38:43.946Z,23.00
2017-11-26T00:38:48.202Z,23.00
2017-11-26T00:38:52.445Z,22.80
2017-11-26T00:38:57.464Z,22.07
2017-11-26T00:39:02.454Z,21.10
2017-11-26T00:39:06.707Z,20.87
2017-11-26T00:39:10.935Z,20.70
2017-11-26T00:39:15.189Z,20.55
2017-11-26T00:39:19.431Z,20.40
2017-11-26T00:39:23.675Z,20.37
2017-11-26T00:39:28.689Z,20.40
2017-11-26T00:39:33.718Z,20.50
2017-11-26T00:39:38.711Z,20.43
2017-11-26T00:39:42.947Z,20.60
2017-11-26T00:39:47.209Z,20.45
2017-11-26T00:39:51.464Z,20.63
2017-11-26T00:39:55.700Z,20.95
2017-11-26T00:40:00.024Z,20.75
2017-11-26T00:40:04.238Z,20.27
2017-11-26T00:40:08.495Z,20.15
2017-11-26T00:40:12.760Z,19.90
2017-11-26T00:40:16.983Z,20.05
2017-11-26T00:40:21.241Z,20.37
2017-11-26T00:40:25.494Z,20.30
2017-11-26T00:40:29.744Z,20.55
2017-11-26T00:40:33.983Z,20.50
2017-11-26T00:40:38.258Z,20.40
2017-11-26T00:40:42.492Z,20.50
2017-11-26T00:40:46.751Z,20.40
2017-11-26T00:40:51.005Z,19.90
2017-11-26T00:40:55.243Z,19.25
2017-11-26T00:40:59.483Z,19.15
2017-11-26T00:41:03.716Z,19.40
2017-11-26T00:41:08.724Z,19.70
2017-11-26T00:41:12.989Z,20.20
2017-11-26T00:41:17.233Z,20.25
2017-11-26T00:41:22.232Z,20.20
2017-11-26T00:41:26.473Z,20.37
2017-11-26T00:41:31.486Z,20.45
2017-11-26T00:41:36.493Z,20.73
2017-11-26T00:41:41.495Z,20.80
2017-11-26T00:41:45.726Z,20.80
2017-11-26T00:41:49.989Z,20.80
2017-11-26T00:41:54.238Z,20.80
2017-11-26T00:41:58.477Z,20.80
2017-11-26T00:42:02.731Z,20.60
2017-11-26T00:42:06.963Z,20.35
2017-11-26T00:42:11.198Z,19.95
2017-11-26T00:42:15.455Z,19.50
2017-11-26T00:42:19.702Z,19.53
2017-11-26T00:42:23.948Z,19.60
2017-11-26T00:42:28.200Z,19.70
2017-11-26T00:42:32.451Z,19.60
2017-11-26T00:42:36.713Z,19.50
2017-11-26T00:42:41.717Z,19.75
2017-11-26T00:42:45.950Z,19.63
2017-11-26T00:42:50.202Z,19.20
2017-11-26T00:42:54.448Z,19.27
2017-11-26T00:42:58.697Z,19.25
2017-11-26T00:43:02.927Z,19.15
2017-11-26T00:43:07.934Z,18.95
2017-11-26T00:43:12.172Z,19.27
2017-11-26T00:43:16.420Z,19.33
2017-11-26T00:43:20.658Z,19.05
2017-11-26T00:43:24.900Z,18.45
2017-11-26T00:43:29.155Z,18.00
2017-11-26T00:43:33.787Z,18.00
2017-11-26T00:43:38.055Z,18.15
2017-11-26T00:43:43.100Z,17.73
2017-11-26T00:43:47.312Z,17.87
2017-11-26T00:43:51.562Z,17.80
2017-11-26T00:43:55.814Z,17.70
2017-11-26T00:44:00.135Z,17.73
2017-11-26T00:44:04.379Z,18.10
2017-11-26T00:44:09.392Z,18.00
2017-11-26T00:44:14.386Z,17.90
2017-11-26T00:44:18.665Z,17.80
2017-11-26T00:44:22.922Z,17.80
2017-11-26T00:44:27.188Z,17.70
2017-11-26T00:44:31.437Z,17.55
2017-11-26T00:44:35.700Z,17.35
2017-11-26T00:44:39.940Z,17.50
2017-11-26T00:44:44.187Z,17.90
2017-11-26T00:44:48.448Z,17.95
2017-11-26T00:44:52.696Z,18.10
2017-11-26T00:44:56.963Z,18.17
2017-11-26T00:45:01.204Z,18.20
2017-11-26T00:45:06.221Z,18.10
2017-11-26T00:45:10.465Z,18.30
2017-11-26T00:45:14.711Z,18.10
2017-11-26T00:45:18.967Z,17.90
2017-11-26T00:45:23.200Z,18.05
2017-11-26T00:45:27.442Z,18.30
2017-11-26T00:45:31.700Z,18.57
2017-11-26T00:45:35.973Z,18.40
2017-11-26T00:45:40.205Z,18.05
2017-11-26T00:45:44.452Z,17.90
2017-11-26T00:45:48.690Z,17.90
2017-11-26T00:45:52.924Z,17.70
2017-11-26T00:45:57.939Z,17.50
2017-11-26T00:46:02.180Z,17.60
2017-11-26T00:46:06.430Z,17.63
2017-11-26T00:46:10.672Z,17.80
2017-11-26T00:46:14.922Z,18.10
2017-11-26T00:46:19.222Z,18.30
2017-11-26T00:46:23.489Z,18.13
2017-11-26T00:46:27.751Z,18.30
2017-11-26T00:46:32.762Z,18.10
2017-11-26T00:46:37.791Z,18.47
2017-11-26T00:46:42.778Z,19.00
2017-11-26T00:46:47.029Z,18.83
2017-11-26T00:46:51.295Z,18.73
2017-11-26T00:46:55.540Z,19.00
2017-11-26T00:46:59.770Z,19.30
2017-11-26T00:47:04.023Z,18.97
2017-11-26T00:47:08.309Z,19.00
2017-11-26T00:47:13.319Z,19.35
2017-11-26T00:47:18.324Z,19.63
2017-11-26T00:47:22.559Z,19.80
2017-11-26T00:47:26.809Z,19.70
2017-11-26T00:47:31.074Z,19.63
2017-11-26T00:47:35.328Z,19.35
2017-11-26T00:47:39.554Z,19.10
2017-11-26T00:47:43.790Z,19.35
2017-11-26T00:47:48.812Z,21.07
2017-11-26T00:47:53.049Z,21.93
2017-11-26T00:47:58.060Z,22.75
2017-11-26T00:48:02.304Z,22.97
2017-11-26T00:48:06.549Z,23.15
2017-11-26T00:48:10.801Z,23.00
2017-11-26T00:48:15.054Z,22.75
2017-11-26T00:48:19.330Z,22.35
2017-11-26T00:48:23.576Z,22.30
2017-11-26T00:48:28.573Z,22.50
2017-11-26T00:48:32.833Z,22.60
2017-11-26T00:48:37.062Z,22.75
2017-11-26T00:48:41.311Z,22.60
2017-11-26T00:48:45.552Z,21.80
2017-11-26T00:48:49.807Z,20.75
2017-11-26T00:48:54.050Z,20.35
2017-11-26T00:48:58.287Z,20.10
2017-11-26T00:49:03.286Z,20.27
2017-11-26T00:49:07.545Z,20.33
2017-11-26T00:49:11.815Z,20.25
2017-11-26T00:49:16.049Z,20.35
2017-11-26T00:49:20.473Z,21.10
2017-11-26T00:49:24.716Z,21.40
2017-11-26T00:49:30.067Z,21.55
2017-11-26T00:49:35.054Z,21.60
2017-11-26T00:49:40.070Z,21.80
2017-11-26T00:49:44.320Z,21.90
2017-11-26T00:49:48.583Z,21.80
2017-11-26T00:49:53.582Z,21.95
2017-11-26T00:49:57.836Z,21.73
2017-11-26T00:50:02.092Z,21.30
2017-11-26T00:50:07.115Z,20.80
2017-11-26T00:50:12.139Z,20.90
2017-11-26T00:50:17.165Z,20.47
2017-11-26T00:50:21.413Z,19.83
2017-11-26T00:50:26.422Z,19.40
2017-11-26T00:50:30.673Z,19.40
2017-11-26T00:50:34.929Z,19.13
2017-11-26T00:50:39.172Z,18.75
2017-11-26T00:50:44.197Z,18.65
2017-11-26T00:50:49.208Z,18.77
2017-11-26T00:50:54.252Z,18.30
2017-11-26T00:50:59.244Z,18.23
2017-11-26T00:51:04.261Z,18.73
2017-11-26T00:51:09.276Z,19.15
2017-11-26T00:51:14.283Z,19.10
2017-11-26T00:51:19.280Z,19.47
2017-11-26T00:51:23.518Z,19.73
2017-11-26T00:51:27.768Z,19.83
2017-11-26T00:51:32.007Z,20.10
2017-11-26T00:51:37.022Z,20.45
2017-11-26T00:51:42.056Z,20.60
2017-11-26T00:51:47.072Z,20.50
2017-11-26T00:51:52.076Z,20.60
2017-11-26T00:51:56.311Z,20.60
2017-11-26T00:52:00.629Z,20.23
2017-11-26T00:52:05.170Z,19.80
2017-11-26T00:52:09.467Z,19.27
2017-11-26T00:52:13.710Z,19.05
2017-11-26T00:52:17.955Z,18.80
2017-11-26T00:52:23.018Z,18.55
2017-11-26T00:52:27.294Z,18.47
2017-11-26T00:52:31.539Z,17.93
2017-11-26T00:52:35.797Z,17.60
2017-11-26T00:52:40.049Z,17.50
2017-11-26T00:52:44.385Z,17.40
2017-11-26T00:52:48.614Z,17.40
2017-11-26T00:52:53.651Z,17.80
2017-11-26T00:52:57.883Z,17.93
2017-11-26T00:53:02.137Z,18.40
2017-11-26T00:53:07.137Z,18.03
2017-11-26T00:53:12.153Z,18.20
2017-11-26T00:53:16.453Z,18.63
2017-11-26T00:53:20.705Z,18.65
2017-11-26T00:53:24.936Z,18.50
2017-11-26T00:53:29.204Z,18.83
2017-11-26T00:53:33.443Z,18.50
2017-11-26T00:53:37.717Z,17.70
2017-11-26T00:53:41.954Z,17.40
2017-11-26T00:53:46.207Z,17.15
2017-11-26T00:53:50.463Z,17.60
2017-11-26T00:53:54.712Z,18.80
2017-11-26T00:53:59.012Z,19.50
2017-11-26T00:54:03.262Z,19.95
2017-11-26T00:54:08.274Z,20.95
2017-11-26T00:54:12.540Z,21.10
2017-11-26T00:54:16.786Z,21.07
2017-11-26T00:54:21.800Z,20.90
2017-11-26T00:54:26.840Z,21.17
2017-11-26T00:54:31.846Z,21.90
2017-11-26T00:54:36.855Z,22.20
2017-11-26T00:54:41.876Z,22.43
2017-11-26T00:54:46.891Z,22.17
2017-11-26T00:54:51.917Z,21.13
2017-11-26T00:54:56.923Z,19.90
2017-11-26T00:55:01.936Z,20.23
2017-11-26T00:55:06.179Z,18.93
2017-11-26T00:55:10.430Z,18.95
2017-11-26T00:55:14.695Z,18.57
2017-11-26T00:55:18.938Z,19.00
2017-11-26T00:55:23.169Z,19.00
2017-11-26T00:55:27.410Z,18.43
2017-11-26T00:55:31.664Z,18.35
2017-11-26T00:55:35.898Z,18.55
2017-11-26T00:55:40.900Z,18.70
2017-11-26T00:55:45.150Z,19.10
2017-11-26T00:55:49.387Z,19.13
2017-11-26T00:55:53.628Z,18.45
2017-11-26T00:55:57.867Z,18.10
2017-11-26T00:56:02.871Z,18.10
2017-11-26T00:56:07.123Z,18.23
2017-11-26T00:56:11.371Z,18.33
2017-11-26T00:56:15.621Z,18.40
2017-11-26T00:56:19.874Z,17.80
2017-11-26T00:56:24.109Z,18.10
2017-11-26T00:56:28.367Z,19.20
2017-11-26T00:56:32.621Z,19.65
2017-11-26T00:56:36.851Z,20.30
2017-11-26T00:56:41.077Z,20.93
2017-11-26T00:56:46.086Z,21.65
2017-11-26T00:56:50.319Z,21.77
2017-11-26T00:56:54.562Z,21.45
2017-11-26T00:56:58.804Z,21.40
2017-11-26T00:57:03.815Z,21.83
2017-11-26T00:57:08.806Z,21.97
2017-11-26T00:57:13.067Z,22.20
2017-11-26T00:57:17.316Z,22.35
2017-11-26T00:57:21.570Z,22.80
2017-11-26T00:57:25.807Z,21.90